VHUKK YMMB-YMML
Flight info
| Callsign | VHUKK |
|---|---|
| Flight time | N/A |
| Altitude | 3000 |
| Route | MICHM/N0111F040 DCT MONTY DCT VISAS DCT MATKU |
| Aircraft | DR40/L-SFG/C |
Departure
| Time | 2026-05-05 08:43 |
|---|---|
| Airport | Melbourne Moorabbin Airport (YMMB) |
Arrival
| Time | N/A |
|---|---|
| Airport | Melbourne Airport (YMML) |
| Time | Latitude | Longitude | Altitude | Speed | Heading |
|---|---|---|---|---|---|
| 2026-05-05 08:23 | -37.97805 | 145.09527 | 50 ft | 0 kts | 9° |
| 2026-05-05 08:32 | -37.97803 | 145.09527 | 50 ft | 0 kts | 8° |
| 2026-05-05 08:34 | -37.97798 | 145.09538 | 50 ft | 5 kts | 75° |
| 2026-05-05 08:34 | -37.97788 | 145.09637 | 50 ft | 4 kts | 53° |
| 2026-05-05 08:34 | -37.97772 | 145.09685 | 50 ft | 10 kts | 86° |
| 2026-05-05 08:34 | -37.97763 | 145.09828 | 50 ft | 18 kts | 99° |
| 2026-05-05 08:35 | -37.97891 | 145.09871 | 50 ft | 17 kts | 176° |
| 2026-05-05 08:35 | -37.97994 | 145.09880 | 50 ft | 19 kts | 176° |
| 2026-05-05 08:35 | -37.98090 | 145.09889 | 50 ft | 19 kts | 178° |
| 2026-05-05 08:35 | -37.98123 | 145.09936 | 50 ft | 8 kts | 48° |
| 2026-05-05 08:36 | -37.98110 | 145.09954 | 50 ft | 0 kts | 50° |
| 2026-05-05 08:42 | -37.98093 | 145.09977 | 50 ft | 15 kts | 47° |
| 2026-05-05 08:43 | -37.97764 | 145.09986 | 81 ft | 69 kts | 354° |
| 2026-05-05 08:43 | -37.97252 | 145.09965 | 412 ft | 64 kts | 352° |
| 2026-05-05 08:43 | -37.96825 | 145.09878 | 728 ft | 60 kts | 338° |
| 2026-05-05 08:43 | -37.96617 | 145.09433 | 954 ft | 67 kts | 274° |
| 2026-05-05 08:44 | -37.96659 | 145.08790 | 1173 ft | 72 kts | 264° |
| 2026-05-05 08:44 | -37.97131 | 145.08523 | 1477 ft | 77 kts | 180° |
| 2026-05-05 08:44 | -37.97800 | 145.08655 | 1598 ft | 107 kts | 172° |
| 2026-05-05 08:44 | -37.98612 | 145.08940 | 1684 ft | 122 kts | 168° |
| 2026-05-05 08:45 | -37.99262 | 145.09164 | 1547 ft | 81 kts | 147° |
| 2026-05-05 08:45 | -37.99408 | 145.09815 | 1195 ft | 77 kts | 62° |
| 2026-05-05 08:45 | -37.98899 | 145.10060 | 532 ft | 88 kts | 359° |
| 2026-05-05 08:45 | -37.98335 | 145.10036 | 129 ft | 72 kts | 353° |
| 2026-05-05 08:46 | -37.97911 | 145.09996 | 50 ft | 43 kts | 354° |
| 2026-05-05 08:46 | -37.97688 | 145.09948 | 50 ft | 21 kts | 323° |
| 2026-05-05 08:46 | -37.97572 | 145.09826 | 50 ft | 18 kts | 328° |
| 2026-05-05 08:46 | -37.97513 | 145.09768 | 50 ft | 10 kts | 319° |
| 2026-05-05 08:47 | -37.97446 | 145.09673 | 50 ft | 14 kts | 274° |
| 2026-05-05 08:47 | -37.97481 | 145.09563 | 50 ft | 7 kts | 161° |
| 2026-05-05 08:47 | -37.97489 | 145.09571 | 50 ft | 0 kts | 122° |